createdAt,value
2018-01-24T00:01:33.404Z,17.92
2018-01-24T00:04:01.660Z,7.57
2018-01-24T00:06:29.178Z,11.48
2018-01-24T00:08:56.673Z,12.23
2018-01-24T00:11:24.172Z,9.25
2018-01-24T00:13:51.680Z,9.15
2018-01-24T00:16:19.164Z,8.98
2018-01-24T00:18:46.674Z,10.20
2018-01-24T00:21:14.185Z,7.95
2018-01-24T00:23:41.686Z,9.07
2018-01-24T00:26:09.177Z,13.07
2018-01-24T00:28:36.693Z,10.02
2018-01-24T00:31:04.187Z,6.80
2018-01-24T00:33:31.697Z,8.13
2018-01-24T00:35:59.961Z,9.13
2018-01-24T00:38:28.242Z,7.90
2018-01-24T00:40:56.498Z,9.70
2018-01-24T00:43:24.014Z,11.45
2018-01-24T00:45:51.501Z,5.32
2018-01-24T00:48:19.005Z,6.90
2018-01-24T00:50:47.265Z,8.68
2018-01-24T00:53:14.765Z,7.07
2018-01-24T00:55:42.257Z,11.68
2018-01-24T00:58:09.765Z,10.05
2018-01-24T01:00:37.258Z,6.07
2018-01-24T01:03:04.774Z,11.80
2018-01-24T01:05:33.049Z,5.78
2018-01-24T01:08:00.582Z,7.15
2018-01-24T01:10:28.072Z,7.80
2018-01-24T01:12:56.346Z,8.52
2018-01-24T01:15:24.625Z,9.23
2018-01-24T01:17:52.881Z,11.27
2018-01-24T01:20:20.403Z,8.75
2018-01-24T01:22:47.938Z,7.57
2018-01-24T01:25:15.449Z,8.73
2018-01-24T01:27:42.941Z,10.85
2018-01-24T01:30:10.460Z,17.50
2018-01-24T01:32:37.957Z,10.63
2018-01-24T01:35:06.230Z,10.50
2018-01-24T01:37:34.487Z,13.77
2018-01-24T01:40:02.005Z,9.27
2018-01-24T01:42:29.494Z,8.35
2018-01-24T01:44:57.002Z,9.88
2018-01-24T01:47:24.503Z,7.37
2018-01-24T01:49:52.005Z,6.05
2018-01-24T01:52:20.266Z,8.90
2018-01-24T01:54:48.549Z,7.07
2018-01-24T01:57:16.817Z,7.57
2018-01-24T01:59:45.140Z,7.65
2018-01-24T02:02:12.635Z,9.60
2018-01-24T02:04:40.136Z,8.57
2018-01-24T02:07:07.621Z,6.30
2018-01-24T02:09:35.130Z,8.32
2018-01-24T02:12:03.422Z,7.55
2018-01-24T02:14:31.698Z,5.43
2018-01-24T02:16:59.965Z,6.00
2018-01-24T02:19:28.296Z,6.78
2018-01-24T02:21:56.513Z,5.90
2018-01-24T02:24:24.793Z,4.65
2018-01-24T02:26:53.050Z,5.43
2018-01-24T02:29:20.570Z,4.53
2018-01-24T02:31:48.061Z,5.25
2018-01-24T02:34:15.567Z,7.50
2018-01-24T02:36:43.058Z,5.22
2018-01-24T02:39:15.453Z,7.15
2018-01-24T02:41:42.951Z,5.60
2018-01-24T02:44:11.253Z,5.50
2018-01-24T02:46:38.745Z,5.68
2018-01-24T02:49:06.276Z,4.95
2018-01-24T02:51:33.765Z,3.85
2018-01-24T02:54:02.045Z,8.15
2018-01-24T02:56:29.532Z,3.60
2018-01-24T02:58:57.793Z,7.68
2018-01-24T03:01:25.297Z,3.55
2018-01-24T03:03:52.789Z,3.80
2018-01-24T03:06:20.289Z,3.20
2018-01-24T03:08:48.546Z,4.68
2018-01-24T03:11:16.841Z,3.00
2018-01-24T03:13:45.097Z,4.10
2018-01-24T03:16:12.610Z,4.70
2018-01-24T03:18:40.101Z,3.50
2018-01-24T03:21:07.641Z,3.25
2018-01-24T03:23:35.133Z,3.92
2018-01-24T03:26:02.641Z,4.20
2018-01-24T03:28:30.129Z,3.22
2018-01-24T03:30:57.644Z,4.62
2018-01-24T03:33:25.141Z,3.05
2018-01-24T03:35:52.641Z,2.70
2018-01-24T03:38:20.897Z,2.72
2018-01-24T03:40:48.406Z,2.05
2018-01-24T03:43:15.901Z,3.10
2018-01-24T03:45:43.411Z,6.68
2018-01-24T03:48:10.913Z,2.20
2018-01-24T03:50:38.418Z,3.72
2018-01-24T03:53:06.681Z,1.87
2018-01-24T03:55:34.957Z,2.22
2018-01-24T03:58:03.222Z,2.22
2018-01-24T04:00:30.753Z,1.92
2018-01-24T04:02:58.252Z,2.28
2018-01-24T04:05:26.538Z,2.62
2018-01-24T04:07:54.793Z,2.45
2018-01-24T04:10:22.329Z,2.15
2018-01-24T04:12:49.821Z,2.45
2018-01-24T04:15:17.337Z,2.15
2018-01-24T04:17:44.824Z,1.70
2018-01-24T04:20:12.338Z,1.92
2018-01-24T04:22:39.830Z,1.70
2018-01-24T04:25:07.349Z,2.55
2018-01-24T04:27:34.841Z,2.80
2018-01-24T04:30:02.362Z,1.95
2018-01-24T04:32:29.854Z,4.87
2018-01-24T04:34:57.371Z,5.45
2018-01-24T04:37:25.629Z,2.45
2018-01-24T04:39:53.905Z,2.22
2018-01-24T04:42:21.406Z,1.60
2018-01-24T04:44:48.920Z,2.20
2018-01-24T04:47:16.413Z,3.60
2018-01-24T04:49:43.916Z,3.03
2018-01-24T04:52:11.422Z,2.83
2018-01-24T04:54:38.937Z,2.45
2018-01-24T04:57:06.440Z,2.78
2018-01-24T04:59:34.699Z,5.12
2018-01-24T05:02:02.987Z,2.78
2018-01-24T05:04:31.249Z,1.90
2018-01-24T05:06:59.528Z,2.15
2018-01-24T05:09:27.790Z,4.22
2018-01-24T05:11:55.289Z,2.37
2018-01-24T05:14:22.794Z,2.35
2018-01-24T05:16:51.834Z,2.00
2018-01-24T05:19:19.350Z,2.15
2018-01-24T05:21:47.798Z,3.70
2018-01-24T05:24:15.292Z,1.90
2018-01-24T05:26:42.797Z,2.58
2018-01-24T05:29:10.281Z,1.65
2018-01-24T05:31:37.797Z,1.70
2018-01-24T05:34:06.053Z,1.85
2018-01-24T05:36:33.561Z,2.00
2018-01-24T05:39:01.059Z,2.90
2018-01-24T05:41:29.554Z,1.87
2018-01-24T05:43:57.051Z,1.90
2018-01-24T05:46:24.561Z,2.35
2018-01-24T05:48:52.105Z,1.42
2018-01-24T05:51:19.577Z,5.75
2018-01-24T05:53:47.067Z,2.00
2018-01-24T05:56:15.345Z,1.52
2018-01-24T05:58:43.597Z,2.12
2018-01-24T06:01:11.107Z,2.35
2018-01-24T06:03:38.602Z,2.15
2018-01-24T06:06:06.110Z,1.85
2018-01-24T06:08:33.597Z,2.60
2018-01-24T06:11:01.130Z,2.15
2018-01-24T06:13:28.619Z,2.33
2018-01-24T06:15:56.897Z,2.17
2018-01-24T06:18:24.437Z,2.70
2018-01-24T06:20:52.706Z,3.10
2018-01-24T06:23:20.211Z,7.65
2018-01-24T06:25:47.726Z,6.43
2018-01-24T06:28:15.217Z,4.60
2018-01-24T06:30:43.498Z,6.28
2018-01-24T06:33:11.002Z,5.55
2018-01-24T06:35:38.510Z,4.28
2018-01-24T06:38:06.018Z,4.78
2018-01-24T06:40:33.529Z,4.78
2018-01-24T06:43:01.127Z,5.97
2018-01-24T06:45:28.625Z,3.87
2018-01-24T06:47:56.917Z,4.37
2018-01-24T06:50:24.463Z,3.45
2018-01-24T06:52:51.980Z,2.65
2018-01-24T06:55:19.486Z,3.65
2018-01-24T06:57:46.997Z,3.12
2018-01-24T07:00:14.494Z,4.82
2018-01-24T07:02:42.761Z,2.75
2018-01-24T07:05:11.024Z,2.50
2018-01-24T07:07:38.534Z,4.55
2018-01-24T07:10:06.034Z,2.70
2018-01-24T07:12:45.473Z,2.65
2018-01-24T07:15:12.973Z,5.68
2018-01-24T07:17:40.485Z,4.82
2018-01-24T07:20:07.981Z,6.05
2018-01-24T07:22:36.254Z,3.80
2018-01-24T07:25:03.762Z,3.47
2018-01-24T07:27:31.274Z,2.33
2018-01-24T07:29:59.525Z,4.30
2018-01-24T07:32:27.037Z,2.67
2018-01-24T07:34:54.534Z,1.90
2018-01-24T07:37:22.053Z,2.67
2018-01-24T07:39:50.307Z,4.37
2018-01-24T07:42:18.578Z,2.15
2018-01-24T07:44:46.828Z,2.95
2018-01-24T07:47:14.333Z,2.72
2018-01-24T07:49:41.828Z,2.37
2018-01-24T07:52:09.329Z,2.67
2018-01-24T07:54:37.591Z,1.40
2018-01-24T07:57:05.093Z,2.35
2018-01-24T07:59:32.605Z,5.65
2018-01-24T08:02:00.113Z,4.50
2018-01-24T08:04:27.606Z,1.77
2018-01-24T08:06:55.117Z,1.65
2018-01-24T08:09:22.621Z,1.58
2018-01-24T08:11:50.138Z,1.67
2018-01-24T08:14:17.621Z,1.65
2018-01-24T08:16:45.128Z,3.25
2018-01-24T08:19:13.381Z,3.10
2018-01-24T08:21:40.891Z,2.42
2018-01-24T08:24:08.373Z,2.22
2018-01-24T08:26:35.878Z,2.75
2018-01-24T08:29:04.129Z,1.60
2018-01-24T08:31:31.647Z,1.80
2018-01-24T08:33:59.176Z,4.50
2018-01-24T08:36:27.449Z,3.62
2018-01-24T08:38:55.701Z,2.45
2018-01-24T08:41:23.210Z,4.10
2018-01-24T08:43:50.765Z,2.10
2018-01-24T08:46:18.245Z,1.62
2018-01-24T08:48:45.733Z,2.17
2018-01-24T08:51:13.242Z,2.00
2018-01-24T08:53:40.746Z,1.62
2018-01-24T08:56:08.238Z,1.20
2018-01-24T08:58:36.513Z,1.30
2018-01-24T09:01:22.452Z,1.30
2018-01-24T09:04:07.574Z,1.37
2018-01-24T09:06:52.645Z,1.10
2018-01-24T09:09:38.596Z,4.60
2018-01-24T09:12:23.722Z,1.08
2018-01-24T09:15:09.615Z,1.40
2018-01-24T09:17:54.886Z,1.55
2018-01-24T09:20:40.981Z,1.65
2018-01-24T09:23:12.918Z,1.58
2018-01-24T09:25:40.406Z,1.90
2018-01-24T09:28:07.934Z,2.47
2018-01-24T09:30:35.426Z,3.17
2018-01-24T09:33:02.938Z,1.62
2018-01-24T09:35:30.483Z,2.28
2018-01-24T09:37:57.957Z,1.77
2018-01-24T09:40:25.451Z,1.60
2018-01-24T09:42:52.997Z,1.65
2018-01-24T09:45:20.480Z,2.05
2018-01-24T09:47:47.978Z,2.00
2018-01-24T09:50:15.493Z,1.90
2018-01-24T09:52:42.994Z,2.08
2018-01-24T09:55:10.498Z,2.10
2018-01-24T09:57:38.761Z,1.83
2018-01-24T10:00:06.286Z,4.80
2018-01-24T10:02:33.782Z,1.80
2018-01-24T10:05:01.299Z,1.58
2018-01-24T10:07:28.785Z,2.47
2018-01-24T10:09:56.407Z,1.55
2018-01-24T10:12:23.910Z,1.87
2018-01-24T10:14:51.425Z,2.65
2018-01-24T10:17:18.933Z,1.30
2018-01-24T10:19:46.494Z,1.15
2018-01-24T10:22:13.980Z,1.58
2018-01-24T10:24:42.266Z,1.58
2018-01-24T10:27:09.761Z,1.58
2018-01-24T10:29:37.270Z,0.90
2018-01-24T10:32:04.786Z,4.07
2018-01-24T10:34:32.301Z,1.08
2018-01-24T10:36:59.794Z,1.15
2018-01-24T10:39:27.306Z,5.50
2018-01-24T10:41:55.572Z,1.17
2018-01-24T10:44:23.842Z,1.30
2018-01-24T10:46:52.137Z,1.23
2018-01-24T10:49:20.393Z,1.10
2018-01-24T10:51:47.913Z,1.12
2018-01-24T10:54:16.272Z,1.08
2018-01-24T10:56:43.789Z,1.25
2018-01-24T10:59:11.290Z,0.88
2018-01-24T11:01:38.801Z,4.07
2018-01-24T11:04:06.318Z,2.65
2018-01-24T11:06:33.842Z,2.00
2018-01-24T11:09:02.118Z,1.92
2018-01-24T11:11:29.781Z,0.75
2018-01-24T11:13:57.401Z,1.12
2018-01-24T11:16:24.918Z,0.90
2018-01-24T11:18:52.424Z,0.95
2018-01-24T11:21:19.941Z,1.40
2018-01-24T11:23:47.442Z,3.33
2018-01-24T11:26:14.958Z,2.72
2018-01-24T11:28:42.449Z,0.70
2018-01-24T11:31:09.956Z,0.90
2018-01-24T11:33:38.234Z,0.80
2018-01-24T11:36:06.551Z,1.45
2018-01-24T11:38:34.081Z,1.50
2018-01-24T11:41:02.389Z,1.30
2018-01-24T11:43:29.894Z,0.80
2018-01-24T11:45:58.202Z,1.10
2018-01-24T11:48:25.713Z,0.98
2018-01-24T11:50:53.246Z,6.37
2018-01-24T11:53:20.746Z,0.88
2018-01-24T11:55:49.029Z,1.15
2018-01-24T11:58:17.344Z,1.10
2018-01-24T12:00:44.854Z,1.00
2018-01-24T12:03:12.349Z,0.77
2018-01-24T12:05:39.936Z,2.25
2018-01-24T12:08:07.449Z,0.80
2018-01-24T12:10:35.718Z,0.90
2018-01-24T12:13:04.003Z,0.88
2018-01-24T12:15:32.273Z,0.80
2018-01-24T12:17:59.809Z,3.50
2018-01-24T12:20:27.318Z,1.12
2018-01-24T12:22:54.854Z,0.90
2018-01-24T12:25:22.354Z,2.00
2018-01-24T12:27:49.877Z,0.82
2018-01-24T12:30:17.378Z,1.10
2018-01-24T12:32:44.897Z,0.70
2018-01-24T12:35:13.225Z,0.80
2018-01-24T12:37:40.720Z,1.20
2018-01-24T12:40:08.230Z,0.80
2018-01-24T12:42:35.728Z,0.90
2018-01-24T12:45:03.269Z,1.02
2018-01-24T12:47:30.761Z,0.80
2018-01-24T12:49:59.053Z,1.45
2018-01-24T12:52:27.317Z,3.17
2018-01-24T12:54:55.594Z,1.08
2018-01-24T12:57:23.900Z,1.52
2018-01-24T12:59:51.502Z,0.70
2018-01-24T13:02:18.997Z,1.27
2018-01-24T13:04:47.278Z,1.08
2018-01-24T13:07:15.533Z,0.95
2018-01-24T13:09:43.042Z,1.30
2018-01-24T13:12:10.533Z,3.47
2018-01-24T13:14:38.048Z,0.70
2018-01-24T13:17:05.550Z,0.73
2018-01-24T13:19:33.101Z,0.80
2018-01-24T13:22:00.601Z,0.95
2018-01-24T13:24:28.914Z,1.10
2018-01-24T13:26:56.424Z,1.25
2018-01-24T13:29:23.935Z,0.90
2018-01-24T13:31:51.429Z,0.82
2018-01-24T13:34:18.973Z,2.42
2018-01-24T13:36:46.480Z,1.25
2018-01-24T13:39:14.778Z,0.70
2018-01-24T13:41:42.269Z,1.25
2018-01-24T13:44:09.784Z,1.23
2018-01-24T13:46:38.045Z,1.08
2018-01-24T13:49:06.302Z,1.02
2018-01-24T13:51:33.817Z,1.42
2018-01-24T13:54:01.314Z,1.55
2018-01-24T13:56:28.829Z,1.55
2018-01-24T13:58:56.333Z,0.88
2018-01-24T14:01:23.852Z,1.27
2018-01-24T14:03:51.383Z,0.73
2018-01-24T14:06:18.913Z,1.10
2018-01-24T14:08:46.413Z,1.10
2018-01-24T14:11:13.933Z,1.10
2018-01-24T14:13:41.453Z,0.90
2018-01-24T14:16:08.962Z,2.25
2018-01-24T14:18:36.458Z,1.25
2018-01-24T14:21:03.966Z,1.10
2018-01-24T14:23:31.521Z,0.80
2018-01-24T14:25:59.053Z,1.90
2018-01-24T14:28:26.549Z,0.70
2018-01-24T14:30:54.086Z,1.58
2018-01-24T14:33:21.610Z,2.30
2018-01-24T14:35:49.158Z,0.85
2018-01-24T14:38:16.657Z,1.15
2018-01-24T14:40:44.224Z,1.85
2018-01-24T14:43:11.771Z,0.77
2018-01-24T14:45:39.300Z,0.95
2018-01-24T14:48:07.697Z,0.80
2018-01-24T14:50:35.213Z,0.88
2018-01-24T14:53:02.742Z,2.58
2018-01-24T14:55:30.270Z,2.65
2018-01-24T14:57:57.786Z,2.15
2018-01-24T15:00:26.065Z,0.95
2018-01-24T15:02:53.581Z,1.10
2018-01-24T15:05:21.117Z,2.42
2018-01-24T15:07:48.632Z,1.35
2018-01-24T15:10:16.161Z,1.35
2018-01-24T15:12:43.675Z,1.70
2018-01-24T15:15:11.972Z,2.03
2018-01-24T15:17:39.487Z,1.70
2018-01-24T15:20:07.009Z,1.25
2018-01-24T15:22:34.528Z,1.25
2018-01-24T15:25:02.817Z,0.88
2018-01-24T15:27:31.108Z,3.53
2018-01-24T15:29:58.618Z,1.75
2018-01-24T15:32:26.154Z,1.55
2018-01-24T15:34:53.659Z,2.05
2018-01-24T15:37:21.944Z,0.90
2018-01-24T15:39:50.214Z,0.80
2018-01-24T15:42:18.501Z,1.20
2018-01-24T15:44:45.996Z,2.67
2018-01-24T15:47:13.546Z,1.33
2018-01-24T15:49:41.041Z,1.33
2018-01-24T15:52:08.589Z,1.00
2018-01-24T15:54:36.125Z,2.55
2018-01-24T15:57:03.638Z,1.20
2018-01-24T15:59:31.932Z,2.35
2018-01-24T16:02:00.206Z,0.80
2018-01-24T16:04:28.498Z,1.60
2018-01-24T16:06:55.993Z,1.15
2018-01-24T16:09:23.508Z,1.00
2018-01-24T16:11:51.793Z,4.82
2018-01-24T16:14:19.324Z,1.10
2018-01-24T16:16:46.825Z,1.60
2018-01-24T16:19:14.342Z,0.80
2018-01-24T16:21:41.844Z,1.25
2018-01-24T16:24:09.385Z,5.78
2018-01-24T16:26:37.646Z,1.15
2018-01-24T16:29:05.960Z,1.40
2018-01-24T16:31:33.495Z,1.92
2018-01-24T16:34:01.887Z,1.73
2018-01-24T16:36:29.381Z,2.08
2018-01-24T16:38:56.918Z,1.80
2018-01-24T16:41:24.482Z,3.35
2018-01-24T16:43:52.014Z,4.72
2018-01-24T16:46:19.521Z,9.30
2018-01-24T16:48:47.050Z,7.50
2018-01-24T16:51:14.573Z,7.32
2018-01-24T16:53:42.855Z,8.70
2018-01-24T16:56:11.177Z,5.07
2018-01-24T16:58:38.688Z,7.32
2018-01-24T17:01:06.287Z,8.68
2018-01-24T17:03:33.784Z,5.00
2018-01-24T17:06:01.465Z,7.65
2018-01-24T17:08:28.958Z,6.15
2018-01-24T17:10:56.581Z,9.88
2018-01-24T17:13:24.090Z,5.70
2018-01-24T17:15:51.629Z,17.58
2018-01-24T17:18:19.165Z,19.62
2018-01-24T17:20:47.527Z,26.87
2018-01-24T17:23:15.039Z,29.77
2018-01-24T17:25:42.685Z,24.05
2018-01-24T17:28:10.990Z,24.83
2018-01-24T17:30:38.522Z,18.23
2018-01-24T17:33:06.820Z,21.87
2018-01-24T17:35:36.753Z,20.92
2018-01-24T17:38:05.030Z,15.27
2018-01-24T17:40:32.553Z,15.70
2018-01-24T17:43:00.892Z,14.52
2018-01-24T17:45:28.421Z,20.48
2018-01-24T17:47:55.921Z,16.30
2018-01-24T17:50:23.437Z,20.02
2018-01-24T17:52:50.954Z,23.92
2018-01-24T17:55:22.394Z,25.60
2018-01-24T17:57:49.941Z,28.42
2018-01-24T18:00:17.469Z,29.10
2018-01-24T18:02:44.981Z,23.75
2018-01-24T18:05:13.286Z,23.30
2018-01-24T18:07:40.870Z,21.92
2018-01-24T18:10:08.394Z,16.98
2018-01-24T18:12:36.751Z,16.27
2018-01-24T18:15:04.266Z,14.25
2018-01-24T18:17:31.781Z,19.98
2018-01-24T18:20:00.110Z,12.45
2018-01-24T18:22:27.633Z,14.45
2018-01-24T18:24:55.196Z,12.50
2018-01-24T18:27:22.785Z,8.70
2018-01-24T18:29:50.345Z,10.95
2018-01-24T18:32:18.690Z,9.65
2018-01-24T18:34:46.267Z,8.60
2018-01-24T18:37:13.862Z,9.20
2018-01-24T18:39:41.369Z,8.35
2018-01-24T18:42:09.732Z,6.40
2018-01-24T18:44:38.051Z,9.30
2018-01-24T18:47:05.645Z,7.32
2018-01-24T18:49:33.185Z,9.95
2018-01-24T18:52:00.835Z,5.60
2018-01-24T18:54:28.333Z,4.95
2018-01-24T18:56:55.951Z,7.62
2018-01-24T18:59:23.454Z,4.37
2018-01-24T19:01:50.971Z,5.82
2018-01-24T19:04:18.462Z,11.20
2018-01-24T19:06:46.833Z,4.22
2018-01-24T19:09:14.358Z,3.35
2018-01-24T19:11:41.922Z,8.45
2018-01-24T19:14:09.439Z,5.12
2018-01-24T19:16:36.974Z,4.30
2018-01-24T19:19:04.544Z,4.70
2018-01-24T19:21:32.065Z,6.25
2018-01-24T19:23:59.625Z,4.37
2018-01-24T19:26:27.134Z,4.97
2018-01-24T19:28:54.692Z,5.12
2018-01-24T19:31:22.211Z,8.63
2018-01-24T19:33:49.710Z,7.18
2018-01-24T19:36:17.222Z,6.70
2018-01-24T19:38:44.725Z,7.68
2018-01-24T19:41:13.067Z,7.25
2018-01-24T19:43:40.667Z,11.65
2018-01-24T19:46:08.200Z,7.90
2018-01-24T19:48:35.770Z,5.18
2018-01-24T19:51:03.363Z,8.65
2018-01-24T19:53:31.663Z,5.57
2018-01-24T19:55:59.220Z,9.77
2018-01-24T19:58:26.796Z,9.98
2018-01-24T20:00:54.349Z,7.07
2018-01-24T20:03:21.912Z,16.27
2018-01-24T20:05:49.440Z,17.83
2018-01-24T20:08:17.701Z,21.87
2018-01-24T20:10:45.249Z,16.35
2018-01-24T20:13:12.797Z,22.50
2018-01-24T20:15:40.313Z,14.35
2018-01-24T20:18:07.889Z,12.00
2018-01-24T20:20:35.448Z,12.57
2018-01-24T20:23:03.024Z,15.85
2018-01-24T20:25:30.527Z,6.97
2018-01-24T20:27:58.094Z,7.37
2018-01-24T20:30:26.377Z,6.65
2018-01-24T20:32:54.729Z,5.93
2018-01-24T20:35:22.225Z,4.32
2018-01-24T20:37:50.506Z,6.05
2018-01-24T20:40:18.018Z,4.85
2018-01-24T20:42:45.550Z,5.40
2018-01-24T20:45:13.876Z,6.30
2018-01-24T20:47:42.158Z,6.30
2018-01-24T20:50:10.486Z,5.45
2018-01-24T20:52:38.006Z,4.57
2018-01-24T20:55:05.582Z,3.92
2018-01-24T20:57:33.996Z,6.00
2018-01-24T21:00:01.514Z,3.45
2018-01-24T21:02:29.844Z,3.22
2018-01-24T21:04:57.347Z,4.62
2018-01-24T21:07:25.628Z,3.87
2018-01-24T21:09:53.149Z,4.37
2018-01-24T21:12:20.699Z,6.47
2018-01-24T21:14:48.252Z,4.78
2018-01-24T21:17:16.529Z,6.47
2018-01-24T21:19:44.035Z,7.50
2018-01-24T21:22:12.313Z,6.20
2018-01-24T21:24:40.592Z,6.75
2018-01-24T21:27:08.878Z,7.45
2018-01-24T21:29:53.070Z,9.07
2018-01-24T21:35:38.232Z,3.75
2018-01-24T21:38:05.821Z,5.90
2018-01-24T21:40:33.335Z,5.55
2018-01-24T21:43:00.874Z,4.03
2018-01-24T21:45:28.391Z,3.30
2018-01-24T21:47:55.947Z,5.60
2018-01-24T21:50:23.493Z,3.15
2018-01-24T21:52:51.006Z,4.78
2018-01-24T21:55:18.501Z,5.78
2018-01-24T21:57:46.023Z,5.75
2018-01-24T22:00:13.592Z,5.15
2018-01-24T22:02:41.106Z,4.87
2018-01-24T22:05:08.618Z,6.37
2018-01-24T22:07:36.894Z,7.87
2018-01-24T22:10:05.237Z,6.47
2018-01-24T22:12:32.754Z,5.35
2018-01-24T22:15:00.273Z,6.55
2018-01-24T22:17:27.781Z,5.62
2018-01-24T22:19:55.300Z,6.93
2018-01-24T22:22:23.591Z,6.72
2018-01-24T22:24:51.122Z,3.37
2018-01-24T22:27:18.683Z,5.50
2018-01-24T22:29:46.199Z,4.40
2018-01-24T22:32:14.022Z,6.95
2018-01-24T22:34:42.313Z,6.62
2018-01-24T22:37:10.601Z,5.05
2018-01-24T22:39:38.934Z,4.45
2018-01-24T22:42:07.264Z,4.20
2018-01-24T22:44:34.788Z,4.90
2018-01-24T22:47:03.115Z,3.90
2018-01-24T22:49:30.637Z,4.72
2018-01-24T22:51:58.918Z,3.70
2018-01-24T22:54:27.202Z,4.70
2018-01-24T22:56:55.483Z,3.37
2018-01-24T22:59:22.999Z,4.05
2018-01-24T23:01:50.516Z,6.12
2018-01-24T23:04:18.038Z,4.90
2018-01-24T23:06:46.312Z,6.10
2018-01-24T23:09:14.601Z,4.75
2018-01-24T23:11:42.879Z,3.72
2018-01-24T23:14:11.165Z,6.55
2018-01-24T23:16:39.421Z,4.07
2018-01-24T23:19:06.973Z,6.57
2018-01-24T23:21:34.518Z,4.68
2018-01-24T23:24:02.059Z,4.90
2018-01-24T23:26:29.557Z,4.03
2018-01-24T23:28:57.094Z,4.43
2018-01-24T23:31:24.619Z,4.97
2018-01-24T23:33:52.137Z,4.35
2018-01-24T23:36:19.638Z,4.75
2018-01-24T23:38:47.161Z,4.28
2018-01-24T23:41:15.435Z,5.93
2018-01-24T23:43:43.712Z,3.72
2018-01-24T23:46:11.982Z,5.10
2018-01-24T23:48:39.502Z,6.78
2018-01-24T23:51:07.011Z,5.65
2018-01-24T23:53:35.285Z,4.28
2018-01-24T23:56:03.569Z,4.72
2018-01-24T23:58:31.852Z,7.93
